Time;durP1;ratioP1;P1;durP2;ratioP2;P2;SDS_P1;SDS_P2;PMS_P1;PMS_P2;Temp;Humidity;BMP_temperature;BMP_pressure;BME280_temperature;BME280_humidity;BME280_pressure;Samples;Min_cycle;Max_cycle;Signal;HPM_P1;HPM_P2
2022/11/03 00:00:12;;;;;;;10.00;6.70;;;;;;;;;;105139;1300;24316;-32
2022/11/03 00:03:01;;;;;;;8.60;6.30;;;;;;;;;;105133;1291;24709;-31
2022/11/03 00:08:22;;;;;;;9.30;6.70;;;;;;;;;;105210;1298;28890;-32
2022/11/03 00:10:54;;;;;;;8.70;6.30;;;;;;;;;;105197;1305;23282;-32
2022/11/03 00:13:27;;;;;;;9.40;6.60;;;;;;;;;;105248;1305;23787;-32
2022/11/03 00:15:59;;;;;;;8.90;6.10;;;;;;;;;;105212;1297;24171;-31
2022/11/03 00:18:32;;;;;;;9.40;6.00;;;;;;;;;;105140;1303;22873;-32
2022/11/03 00:21:07;;;;;;;8.50;5.80;;;;;;;;;;105132;1303;24115;-32
2022/11/03 00:23:41;;;;;;;8.00;5.80;;;;;;;;;;105136;1297;25098;-32
2022/11/03 00:26:16;;;;;;;8.80;5.70;;;;;;;;;;105126;1303;23564;-31
2022/11/03 00:28:50;;;;;;;9.10;5.90;;;;;;;;;;105234;1287;30073;-32
2022/11/03 00:31:26;;;;;;;9.00;6.00;;;;;;;;;;105215;1298;23299;-31
2022/11/03 00:33:59;;;;;;;8.20;5.70;;;;;;;;;;105235;1285;24709;-32
2022/11/03 00:36:33;;;;;;;7.90;5.40;;;;;;;;;;105206;1298;23891;-31
2022/11/03 00:39:06;;;;;;;7.70;5.30;;;;;;;;;;105138;1296;30100;-31
2022/11/03 00:41:40;;;;;;;7.20;5.00;;;;;;;;;;105118;1290;23855;-32
2022/11/03 00:44:12;;;;;;;9.00;5.50;;;;;;;;;;105142;1306;25295;-32
2022/11/03 00:46:44;;;;;;;7.80;5.20;;;;;;;;;;105131;1305;22616;-32
2022/11/03 00:49:17;;;;;;;8.10;5.10;;;;;;;;;;105234;1297;31044;-32
2022/11/03 00:51:49;;;;;;;8.10;5.10;;;;;;;;;;105207;1297;23738;-32
2022/11/03 00:54:21;;;;;;;8.10;4.70;;;;;;;;;;105233;1298;22839;-32
2022/11/03 00:56:53;;;;;;;7.90;5.10;;;;;;;;;;105232;1297;24435;-32
2022/11/03 00:59:26;;;;;;;7.90;4.70;;;;;;;;;;105100;1306;24923;-31
2022/11/03 01:01:58;;;;;;;7.50;4.80;;;;;;;;;;105150;1303;24520;-31
2022/11/03 01:07:22;;;;;;;8.30;5.10;;;;;;;;;;105112;1296;24446;-32
2022/11/03 01:09:55;;;;;;;7.10;4.50;;;;;;;;;;105223;1305;25106;-32
2022/11/03 01:12:27;;;;;;;8.30;5.10;;;;;;;;;;105250;1298;22610;-32
2022/11/03 01:15:01;;;;;;;6.70;4.40;;;;;;;;;;105267;1306;23041;-31
2022/11/03 01:17:34;;;;;;;7.40;4.60;;;;;;;;;;105224;1295;23702;-32
2022/11/03 01:20:10;;;;;;;6.50;4.20;;;;;;;;;;105151;1303;24320;-32
2022/11/03 01:22:42;;;;;;;7.20;4.50;;;;;;;;;;105171;1306;24359;-32
2022/11/03 01:25:14;;;;;;;7.30;4.80;;;;;;;;;;105155;1295;23856;-32
2022/11/03 01:27:46;;;;;;;6.40;4.20;;;;;;;;;;105102;1296;22802;-32
2022/11/03 01:30:18;;;;;;;7.00;4.30;;;;;;;;;;105238;1288;24218;-32
2022/11/03 01:32:53;;;;;;;6.30;4.00;;;;;;;;;;105222;1307;24736;-32
2022/11/03 01:35:25;;;;;;;7.00;3.80;;;;;;;;;;105231;1304;23560;-32
2022/11/03 01:37:58;;;;;;;6.20;3.80;;;;;;;;;;105169;1298;24898;-32
2022/11/03 01:40:30;;;;;;;7.10;4.20;;;;;;;;;;105137;1306;23893;-32
2022/11/03 01:43:20;;;;;;;8.40;4.40;;;;;;;;;;105131;1311;23825;-32
2022/11/03 01:46:00;;;;;;;6.50;4.00;;;;;;;;;;105120;1292;24593;-32
2022/11/03 01:48:33;;;;;;;6.10;3.80;;;;;;;;;;105152;1303;22745;-31
2022/11/03 01:51:10;;;;;;;6.10;3.60;;;;;;;;;;105261;1297;24729;-32
2022/11/03 01:53:46;;;;;;;6.80;4.00;;;;;;;;;;105234;1304;25442;-32
2022/11/03 01:56:20;;;;;;;6.30;3.60;;;;;;;;;;105287;1297;22469;-32
2022/11/03 01:58:55;;;;;;;7.10;4.00;;;;;;;;;;105199;1303;25236;-32
2022/11/03 02:01:28;;;;;;;6.70;3.90;;;;;;;;;;105169;1297;23802;-32
2022/11/03 02:04:07;;;;;;;6.60;3.90;;;;;;;;;;105141;1298;24341;-32
2022/11/03 02:06:40;;;;;;;6.40;3.40;;;;;;;;;;105129;1289;22491;-32
2022/11/03 02:09:13;;;;;;;6.00;3.40;;;;;;;;;;105096;1297;25132;-32
2022/11/03 02:14:36;;;;;;;5.80;3.50;;;;;;;;;;105214;1303;24127;-31
2022/11/03 02:17:14;;;;;;;6.10;3.80;;;;;;;;;;105261;1289;24675;-32
2022/11/03 02:19:51;;;;;;;6.20;3.80;;;;;;;;;;105154;1303;22956;-32
2022/11/03 02:22:40;;;;;;;5.70;3.50;;;;;;;;;;105120;1290;23938;-32
2022/11/03 02:25:30;;;;;;;5.70;3.60;;;;;;;;;;105122;1297;22998;-31
2022/11/03 02:28:03;;;;;;;6.10;3.70;;;;;;;;;;105154;1305;22641;-32
2022/11/03 02:30:45;;;;;;;6.30;3.60;;;;;;;;;;105165;1297;24152;-32
2022/11/03 02:33:29;;;;;;;6.00;3.60;;;;;;;;;;105285;1303;24335;-31
2022/11/03 02:36:06;;;;;;;6.30;3.40;;;;;;;;;;105198;1306;24424;-32
2022/11/03 02:38:44;;;;;;;5.20;3.10;;;;;;;;;;105245;1303;22502;-32
2022/11/03 02:41:19;;;;;;;6.60;3.20;;;;;;;;;;105237;1292;23367;-31
2022/11/03 02:43:56;;;;;;;5.20;3.20;;;;;;;;;;105131;1306;23827;-31
2022/11/03 02:46:30;;;;;;;6.00;3.40;;;;;;;;;;105110;1296;23809;-32
2022/11/03 02:49:03;;;;;;;5.70;3.00;;;;;;;;;;105112;1305;22841;-32
2022/11/03 02:51:35;;;;;;;6.20;3.20;;;;;;;;;;105166;1296;28321;-32
2022/11/03 02:54:16;;;;;;;6.10;3.40;;;;;;;;;;105214;1292;22629;-31
2022/11/03 02:56:55;;;;;;;6.20;3.30;;;;;;;;;;105243;1304;24200;-32
2022/11/03 02:59:34;;;;;;;5.30;3.10;;;;;;;;;;105193;1301;23083;-32
2022/11/03 03:02:11;;;;;;;5.70;3.10;;;;;;;;;;105144;1306;27867;-32
2022/11/03 03:04:50;;;;;;;5.40;2.90;;;;;;;;;;105160;1303;23885;-32
2022/11/03 03:07:27;;;;;;;5.30;3.00;;;;;;;;;;105136;1304;24142;-32
2022/11/03 03:10:05;;;;;;;6.10;3.30;;;;;;;;;;105085;1283;23532;-32
2022/11/03 03:12:41;;;;;;;5.90;3.40;;;;;;;;;;105130;1297;23963;-32
2022/11/03 03:15:15;;;;;;;6.10;3.20;;;;;;;;;;105141;1306;25504;-32
2022/11/03 03:17:54;;;;;;;5.00;3.00;;;;;;;;;;105108;1303;24386;-32
2022/11/03 03:20:31;;;;;;;5.90;3.20;;;;;;;;;;105105;1304;23314;-32
2022/11/03 03:23:11;;;;;;;6.10;3.40;;;;;;;;;;105258;1298;24324;-31
2022/11/03 03:25:49;;;;;;;6.00;3.20;;;;;;;;;;105230;1304;22862;-32
2022/11/03 03:28:26;;;;;;;5.20;3.40;;;;;;;;;;105237;1305;23952;-32
2022/11/03 03:31:02;;;;;;;5.90;3.40;;;;;;;;;;105171;1300;25994;-32
2022/11/03 03:33:36;;;;;;;5.30;3.10;;;;;;;;;;105133;1291;24939;-32
2022/11/03 03:36:15;;;;;;;5.80;3.10;;;;;;;;;;105126;1303;24203;-32
2022/11/03 03:38:55;;;;;;;5.70;3.30;;;;;;;;;;105129;1291;24405;-32
2022/11/03 03:41:31;;;;;;;5.40;3.10;;;;;;;;;;105127;1291;23508;-32
2022/11/03 03:44:07;;;;;;;5.70;3.00;;;;;;;;;;105216;1304;23021;-32
2022/11/03 03:46:44;;;;;;;5.00;2.90;;;;;;;;;;105219;1302;24481;-32
2022/11/03 03:49:16;;;;;;;5.80;3.30;;;;;;;;;;105240;1299;24944;-31
2022/11/03 03:51:52;;;;;;;5.40;3.30;;;;;;;;;;105151;1298;24153;-32
2022/11/03 03:54:25;;;;;;;5.90;3.40;;;;;;;;;;105134;1306;23178;-32
2022/11/03 03:57:04;;;;;;;6.40;3.30;;;;;;;;;;105150;1285;24694;-32
2022/11/03 03:59:36;;;;;;;6.20;3.40;;;;;;;;;;105163;1296;24271;-32
2022/11/03 04:02:07;;;;;;;6.20;2.90;;;;;;;;;;105189;1305;24152;-32
2022/11/03 04:04:40;;;;;;;5.90;3.30;;;;;;;;;;105209;1302;24318;-32
2022/11/03 04:10:03;;;;;;;5.50;3.20;;;;;;;;;;105256;1297;24075;-31
2022/11/03 04:24:06;;;;;;;6.40;3.10;;;;;;;;;;104734;1303;25915;-32
2022/11/03 04:26:38;;;;;;;5.50;3.20;;;;;;;;;;105030;1296;22683;-32
2022/11/03 04:29:15;;;;;;;6.00;3.20;;;;;;;;;;105076;1300;23750;-31
2022/11/03 04:31:47;;;;;;;5.20;3.50;;;;;;;;;;105088;1303;25207;-32
2022/11/03 04:34:19;;;;;;;5.60;3.30;;;;;;;;;;105031;1306;26211;-32
2022/11/03 04:36:51;;;;;;;5.50;3.10;;;;;;;;;;105069;1291;25214;-32
2022/11/03 04:39:23;;;;;;;5.60;3.00;;;;;;;;;;105061;1283;25285;-32
2022/11/03 04:41:55;;;;;;;5.80;3.10;;;;;;;;;;105086;1298;22804;-31
2022/11/03 04:44:28;;;;;;;6.30;3.40;;;;;;;;;;105107;1291;22977;-32
2022/11/03 04:46:59;;;;;;;;;;;;;;;;;;105167;1289;25331;-31
2022/11/03 04:49:31;;;;;;;5.50;3.10;;;;;;;;;;105130;1299;24873;-32
2022/11/03 04:52:04;;;;;;;5.70;3.30;;;;;;;;;;105148;1285;23876;-32
2022/11/03 04:54:35;;;;;;;5.80;3.30;;;;;;;;;;105196;1304;22456;-32
2022/11/03 04:57:14;;;;;;;6.20;3.60;;;;;;;;;;105226;1299;25254;-32
2022/11/03 04:59:49;;;;;;;5.70;3.00;;;;;;;;;;105229;1300;23929;-31
2022/11/03 05:02:23;;;;;;;5.10;3.10;;;;;;;;;;105230;1298;24113;-32
2022/11/03 05:04:57;;;;;;;6.10;3.50;;;;;;;;;;105111;1305;26678;-32
2022/11/03 05:07:35;;;;;;;5.70;3.20;;;;;;;;;;105136;1290;22486;-32
2022/11/03 05:10:16;;;;;;;4.80;3.10;;;;;;;;;;105165;1299;23928;-32
2022/11/03 05:12:49;;;;;;;5.20;3.40;;;;;;;;;;105116;1299;30355;-31
2022/11/03 05:15:34;;;;;;;5.00;3.00;;;;;;;;;;105224;1304;27092;-32
2022/11/03 05:18:20;;;;;;;6.50;3.30;;;;;;;;;;105242;1292;22667;-32
2022/11/03 05:20:57;;;;;;;6.10;3.60;;;;;;;;;;105244;1298;23894;-32
2022/11/03 05:23:35;;;;;;;5.40;3.30;;;;;;;;;;105162;1292;23743;-32
2022/11/03 05:26:14;;;;;;;5.70;3.40;;;;;;;;;;105135;1298;23549;-32
2022/11/03 05:28:52;;;;;;;5.20;3.20;;;;;;;;;;105151;1303;22507;-32
2022/11/03 05:31:28;;;;;;;5.00;2.90;;;;;;;;;;105145;1304;24982;-32
2022/11/03 05:34:03;;;;;;;5.70;3.30;;;;;;;;;;105142;1284;22933;-31
2022/11/03 05:36:36;;;;;;;5.40;3.40;;;;;;;;;;105223;1305;24767;-32
2022/11/03 05:39:32;;;;;;;6.60;3.70;;;;;;;;;;105251;1292;22998;-32
2022/11/03 05:42:20;;;;;;;6.30;3.50;;;;;;;;;;105272;1290;23713;-31
2022/11/03 05:44:53;;;;;;;5.70;3.70;;;;;;;;;;105134;1297;24153;-32
2022/11/03 05:47:32;;;;;;;6.50;3.80;;;;;;;;;;105138;1300;22523;-32
2022/11/03 05:50:16;;;;;;;6.10;3.80;;;;;;;;;;105141;1300;23959;-32
2022/11/03 05:52:49;;;;;;;6.00;3.50;;;;;;;;;;105156;1299;23855;-32
2022/11/03 05:55:30;;;;;;;6.70;3.80;;;;;;;;;;105177;1299;23548;-32
2022/11/03 05:58:12;;;;;;;6.60;4.00;;;;;;;;;;105251;1299;23752;-32
2022/11/03 06:00:45;;;;;;;5.60;3.70;;;;;;;;;;105219;1296;22797;-32
2022/11/03 06:03:23;;;;;;;6.20;3.70;;;;;;;;;;105273;1295;24932;-32
2022/11/03 06:05:57;;;;;;;6.40;3.70;;;;;;;;;;105144;1300;25253;-32
2022/11/03 06:08:35;;;;;;;6.90;4.00;;;;;;;;;;105142;1287;23156;-32
2022/11/03 06:11:09;;;;;;;6.20;3.70;;;;;;;;;;105109;1298;22688;-32
2022/11/03 06:13:42;;;;;;;7.40;4.10;;;;;;;;;;105143;1292;24702;-31
2022/11/03 06:16:35;;;;;;;6.40;3.70;;;;;;;;;;105082;1297;24169;-32
2022/11/03 06:19:21;;;;;;;6.80;3.80;;;;;;;;;;105138;1300;22475;-31
2022/11/03 06:21:58;;;;;;;6.50;3.40;;;;;;;;;;105163;1298;23010;-31
2022/11/03 06:24:33;;;;;;;7.70;3.60;;;;;;;;;;105053;1282;22903;-30
2022/11/03 06:27:09;;;;;;;6.60;3.50;;;;;;;;;;105203;1291;22753;-31
2022/11/03 06:29:42;;;;;;;6.60;3.90;;;;;;;;;;105290;1289;22519;-30
2022/11/03 06:32:15;;;;;;;6.50;3.20;;;;;;;;;;105243;1297;24066;-31
2022/11/03 06:34:53;;;;;;;6.90;3.50;;;;;;;;;;105183;1282;23786;-31
2022/11/03 06:37:31;;;;;;;7.00;3.60;;;;;;;;;;105218;1289;24194;-30
2022/11/03 06:40:30;;;;;;;6.20;3.50;;;;;;;;;;105151;1279;22476;-31
2022/11/03 06:43:20;;;;;;;6.40;3.30;;;;;;;;;;105176;1302;22667;-31
2022/11/03 06:45:55;;;;;;;6.20;4.00;;;;;;;;;;105220;1297;24907;-29
2022/11/03 06:48:33;;;;;;;10.10;5.60;;;;;;;;;;105262;1282;23221;-29
2022/11/03 06:51:17;;;;;;;9.70;4.90;;;;;;;;;;105236;1299;23991;-30
2022/11/03 06:53:51;;;;;;;10.10;5.00;;;;;;;;;;105246;1296;23249;-31
2022/11/03 06:56:26;;;;;;;8.40;4.40;;;;;;;;;;105137;1304;25019;-30
2022/11/03 06:59:00;;;;;;;9.00;5.00;;;;;;;;;;105165;1301;25312;-29
2022/11/03 07:01:37;;;;;;;8.10;4.30;;;;;;;;;;105140;1290;24111;-29
2022/11/03 07:04:18;;;;;;;6.60;4.10;;;;;;;;;;105147;1298;22712;-29
2022/11/03 07:06:51;;;;;;;7.80;4.00;;;;;;;;;;105183;1299;25040;-29
2022/11/03 07:09:26;;;;;;;7.20;4.10;;;;;;;;;;105200;1285;23691;-29
2022/11/03 07:12:01;;;;;;;8.00;4.00;;;;;;;;;;105202;1304;22468;-31
2022/11/03 07:14:35;;;;;;;7.60;4.40;;;;;;;;;;105204;1289;23045;-31
2022/11/03 07:17:15;;;;;;;7.30;4.10;;;;;;;;;;105121;1297;22631;-31
2022/11/03 07:19:51;;;;;;;7.30;3.90;;;;;;;;;;105142;1297;22745;-31
2022/11/03 07:22:26;;;;;;;7.50;4.10;;;;;;;;;;105141;1283;24401;-31
2022/11/03 07:25:02;;;;;;;7.20;3.80;;;;;;;;;;105125;1296;22786;-29
2022/11/03 07:27:40;;;;;;;7.20;4.10;;;;;;;;;;105173;1284;24005;-28
2022/11/03 07:30:21;;;;;;;6.80;4.10;;;;;;;;;;105246;1297;23926;-28
2022/11/03 07:32:57;;;;;;;7.40;4.20;;;;;;;;;;105288;1297;22543;-28
2022/11/03 07:35:34;;;;;;;6.90;4.00;;;;;;;;;;105238;1298;23891;-29
2022/11/03 07:38:15;;;;;;;7.00;3.70;;;;;;;;;;105222;1300;31206;-30
2022/11/03 07:40:48;;;;;;;7.20;3.90;;;;;;;;;;105130;1283;23010;-30
2022/11/03 07:43:24;;;;;;;6.50;3.60;;;;;;;;;;105204;1276;23852;-30
2022/11/03 07:45:59;;;;;;;6.70;3.90;;;;;;;;;;105253;1295;23034;-30
2022/11/03 07:48:36;;;;;;;5.90;3.50;;;;;;;;;;105034;1292;30062;-30
2022/11/03 07:51:22;;;;;;;7.80;4.40;;;;;;;;;;105037;1301;23198;-31
2022/11/03 07:53:58;;;;;;;8.40;4.50;;;;;;;;;;105066;1284;22485;-30
2022/11/03 07:56:35;;;;;;;17.50;5.90;;;;;;;;;;105058;1291;25260;-29
2022/11/03 07:59:20;;;;;;;12.10;5.20;;;;;;;;;;105115;1299;24027;-29
2022/11/03 08:01:55;;;;;;;11.70;5.30;;;;;;;;;;105122;1285;23092;-29
2022/11/03 08:04:30;;;;;;;10.10;5.00;;;;;;;;;;105094;1303;22519;-29
2022/11/03 08:08:19;;;;;;;10.30;5.40;;;;;;;;;;104654;1298;560426;-29
2022/11/03 08:10:52;;;;;;;11.10;5.20;;;;;;;;;;107837;1275;23817;-29
2022/11/03 08:13:24;;;;;;;10.30;4.90;;;;;;;;;;107787;1275;24285;-29
2022/11/03 08:15:56;;;;;;;9.30;4.80;;;;;;;;;;107808;1275;24689;-29
2022/11/03 08:18:28;;;;;;;7.30;4.70;;;;;;;;;;107705;1273;23242;-29
2022/11/03 08:21:00;;;;;;;9.30;4.70;;;;;;;;;;107562;1275;185626;-29
2022/11/03 08:23:32;;;;;;;8.70;4.70;;;;;;;;;;107833;1272;23625;-29
2022/11/03 08:26:05;;;;;;;9.30;4.90;;;;;;;;;;107837;1275;24161;-30
2022/11/03 08:28:38;;;;;;;9.60;4.70;;;;;;;;;;107833;1272;25363;-32
2022/11/03 08:31:11;;;;;;;7.90;4.70;;;;;;;;;;107866;1272;23994;-32
2022/11/03 08:33:45;;;;;;;9.00;4.70;;;;;;;;;;107848;1272;24317;-31
2022/11/03 08:36:19;;;;;;;8.60;4.80;;;;;;;;;;107896;1266;23431;-31
2022/11/03 08:38:51;;;;;;;8.00;4.20;;;;;;;;;;107826;1272;24251;-31
2022/11/03 08:41:23;;;;;;;8.50;4.70;;;;;;;;;;108055;1268;24294;-33
2022/11/03 08:43:55;;;;;;;7.70;4.60;;;;;;;;;;108067;1268;23117;-32
2022/11/03 08:46:27;;;;;;;8.30;4.60;;;;;;;;;;108055;1268;23727;-32
2022/11/03 08:48:59;;;;;;;7.70;4.40;;;;;;;;;;108070;1269;26358;-30
2022/11/03 08:51:31;;;;;;;8.70;4.30;;;;;;;;;;108066;1269;24018;-31
2022/11/03 08:54:03;;;;;;;7.70;4.60;;;;;;;;;;108032;1266;25284;-30
2022/11/03 08:56:35;;;;;;;8.10;4.00;;;;;;;;;;108107;1269;23971;-32
2022/11/03 08:59:07;;;;;;;8.20;4.10;;;;;;;;;;108016;1269;24340;-30
2022/11/03 09:01:39;;;;;;;7.40;4.00;;;;;;;;;;107966;1271;24237;-31
2022/11/03 09:04:14;;;;;;;7.30;4.40;;;;;;;;;;108012;1262;25231;-30
2022/11/03 09:06:46;;;;;;;6.70;4.10;;;;;;;;;;107989;1270;25238;-31
2022/11/03 09:09:20;;;;;;;8.50;4.40;;;;;;;;;;107984;1269;24022;-30
2022/11/03 09:11:52;;;;;;;7.00;4.00;;;;;;;;;;108348;1266;23863;-32
2022/11/03 09:16:40;;;;;;;7.20;3.90;;;;;;;;;;103991;1314;569396;-29
2022/11/03 09:19:12;;;;;;;7.30;4.00;;;;;;;;;;107297;1281;23797;-29
2022/11/03 09:21:47;;;;;;;6.40;3.70;;;;;;;;;;107290;1282;24053;-30
2022/11/03 09:24:18;;;;;;;7.30;4.00;;;;;;;;;;107260;1283;24061;-29
2022/11/03 09:26:50;;;;;;;7.10;3.80;;;;;;;;;;107172;1283;22702;-30
2022/11/03 09:29:26;;;;;;;7.10;3.90;;;;;;;;;;107006;1277;284924;-30
2022/11/03 09:31:58;;;;;;;6.20;3.30;;;;;;;;;;107348;1274;22707;-30
2022/11/03 09:34:30;;;;;;;5.90;3.70;;;;;;;;;;107390;1280;22625;-31
2022/11/03 09:37:02;;;;;;;6.40;3.30;;;;;;;;;;107403;1280;22559;-31
2022/11/03 09:39:37;;;;;;;6.00;3.50;;;;;;;;;;107486;1280;24528;-31
2022/11/03 09:42:10;;;;;;;6.60;3.70;;;;;;;;;;107499;1280;22802;-31
2022/11/03 09:44:43;;;;;;;5.90;3.40;;;;;;;;;;107523;1274;23362;-31
2022/11/03 09:47:22;;;;;;;6.70;3.60;;;;;;;;;;107390;1281;25239;-32
2022/11/03 09:49:56;;;;;;;6.20;3.60;;;;;;;;;;107384;1280;24158;-31
2022/11/03 09:52:32;;;;;;;6.40;4.00;;;;;;;;;;107373;1280;23913;-31
2022/11/03 09:55:19;;;;;;;6.90;3.60;;;;;;;;;;107379;1283;24119;-31
2022/11/03 09:57:53;;;;;;;6.90;4.20;;;;;;;;;;107455;1280;24154;-31
2022/11/03 10:00:28;;;;;;;7.60;4.20;;;;;;;;;;107489;1280;23829;-31
2022/11/03 10:03:01;;;;;;;6.10;3.70;;;;;;;;;;107501;1281;22803;-31
2022/11/03 10:05:36;;;;;;;6.00;3.80;;;;;;;;;;107491;1281;23240;-31
2022/11/03 10:08:21;;;;;;;6.90;3.70;;;;;;;;;;107351;1280;24027;-32
2022/11/03 10:10:53;;;;;;;5.90;3.50;;;;;;;;;;107395;1280;23802;-32
2022/11/03 10:13:32;;;;;;;6.20;3.60;;;;;;;;;;107399;1280;22815;-32
2022/11/03 10:16:10;;;;;;;6.80;3.50;;;;;;;;;;107473;1280;24571;-31
2022/11/03 10:18:47;;;;;;;6.50;3.80;;;;;;;;;;107481;1279;25418;-30
2022/11/03 10:21:23;;;;;;;5.80;3.60;;;;;;;;;;107526;1278;24122;-31
2022/11/03 10:23:56;;;;;;;5.90;3.70;;;;;;;;;;107408;1279;25291;-31
2022/11/03 10:26:34;;;;;;;6.30;3.60;;;;;;;;;;107389;1271;22629;-31
2022/11/03 10:29:08;;;;;;;6.40;3.80;;;;;;;;;;107377;1281;26855;-30
2022/11/03 10:31:43;;;;;;;6.00;3.50;;;;;;;;;;107411;1280;23471;-31
2022/11/03 10:34:36;;;;;;;6.20;3.40;;;;;;;;;;107376;1281;22873;-30
2022/11/03 10:37:24;;;;;;;6.50;3.60;;;;;;;;;;107958;1269;22801;-30
2022/11/03 10:40:03;;;;;;;5.90;3.30;;;;;;;;;;108080;1262;24195;-31
2022/11/03 10:42:35;;;;;;;6.30;3.30;;;;;;;;;;108070;1264;23772;-30
2022/11/03 10:45:23;;;;;;;6.20;3.40;;;;;;;;;;108067;1268;24444;-32
2022/11/03 10:48:05;;;;;;;5.90;3.20;;;;;;;;;;108072;1268;22561;-32
2022/11/03 10:50:43;;;;;;;6.80;3.40;;;;;;;;;;108043;1268;24058;-29
2022/11/03 10:53:21;;;;;;;5.80;3.40;;;;;;;;;;108061;1268;23627;-30
2022/11/03 10:55:54;;;;;;;5.20;2.90;;;;;;;;;;108053;1268;24158;-29
2022/11/03 10:58:29;;;;;;;5.80;3.40;;;;;;;;;;107955;1271;24142;-31
2022/11/03 11:01:06;;;;;;;5.00;3.00;;;;;;;;;;108058;1268;22547;-31
2022/11/03 11:03:43;;;;;;;5.40;3.20;;;;;;;;;;108060;1268;25035;-29
2022/11/03 11:06:28;;;;;;;5.90;3.10;;;;;;;;;;108063;1265;22731;-33
2022/11/03 11:09:09;;;;;;;5.80;2.90;;;;;;;;;;108036;1262;23418;-32
2022/11/03 11:11:43;;;;;;;5.90;2.90;;;;;;;;;;108094;1262;23501;-31
2022/11/03 11:14:39;;;;;;;6.40;3.20;;;;;;;;;;108055;1267;23598;-30
2022/11/03 11:17:44;;;;;;;5.50;3.00;;;;;;;;;;107998;1268;22642;-30
2022/11/03 11:20:37;;;;;;;5.00;3.00;;;;;;;;;;108086;1265;25016;-31
2022/11/03 11:23:51;;;;;;;5.00;2.90;;;;;;;;;;108044;1260;22937;-29
2022/11/03 11:26:44;;;;;;;5.10;3.00;;;;;;;;;;108007;1265;23954;-30
2022/11/03 11:29:46;;;;;;;5.80;3.10;;;;;;;;;;108004;1268;24104;-31
2022/11/03 11:32:56;;;;;;;;;;;;;;;;;;107994;1269;22584;-31
2022/11/03 11:36:19;;;;;;;5.20;2.70;;;;;;;;;;107987;1271;22566;-31
2022/11/03 11:39:01;;;;;;;5.10;2.80;;;;;;;;;;107928;1269;25240;-31
2022/11/03 11:42:12;;;;;;;6.00;2.80;;;;;;;;;;108015;1261;23121;-31
2022/11/03 11:44:56;;;;;;;5.40;2.70;;;;;;;;;;108040;1268;23235;-31
2022/11/03 11:47:51;;;;;;;5.90;2.80;;;;;;;;;;108138;1268;25306;-31
2022/11/03 11:50:31;;;;;;;5.30;2.80;;;;;;;;;;108064;1268;24780;-31
2022/11/03 11:53:22;;;;;;;5.90;2.90;;;;;;;;;;108036;1268;23891;-31
2022/11/03 11:55:58;;;;;;;5.00;2.70;;;;;;;;;;108099;1266;22652;-31
2022/11/03 11:58:40;;;;;;;5.70;3.10;;;;;;;;;;107967;1269;22560;-31
2022/11/03 12:01:27;;;;;;;4.80;2.70;;;;;;;;;;108232;1262;30179;-31
2022/11/03 12:04:03;;;;;;;5.00;2.60;;;;;;;;;;108126;1268;23373;-31
2022/11/03 12:06:40;;;;;;;5.00;2.60;;;;;;;;;;108234;1268;22566;-29
2022/11/03 12:09:21;;;;;;;4.70;2.70;;;;;;;;;;108066;1268;23235;-29
2022/11/03 12:11:57;;;;;;;5.40;2.80;;;;;;;;;;108084;1268;24237;-29
2022/11/03 12:14:36;;;;;;;4.70;2.50;;;;;;;;;;108071;1268;23212;-29
2022/11/03 12:17:35;;;;;;;5.30;2.90;;;;;;;;;;108053;1268;23394;-29
2022/11/03 12:20:46;;;;;;;5.80;2.70;;;;;;;;;;108073;1268;22560;-29
2022/11/03 12:23:40;;;;;;;6.00;2.80;;;;;;;;;;108136;1268;23167;-29
2022/11/03 12:26:46;;;;;;;5.20;2.50;;;;;;;;;;108063;1268;22574;-29
2022/11/03 12:29:21;;;;;;;4.80;2.60;;;;;;;;;;108098;1268;24007;-29
2022/11/03 12:31:54;;;;;;;5.30;2.50;;;;;;;;;;107960;1267;27669;-30
2022/11/03 12:34:26;;;;;;;4.60;2.20;;;;;;;;;;108003;1270;24253;-29
2022/11/03 12:36:59;;;;;;;5.20;2.50;;;;;;;;;;107983;1269;24130;-29
2022/11/03 12:39:31;;;;;;;5.60;2.70;;;;;;;;;;107959;1270;22971;-29
2022/11/03 12:42:04;;;;;;;5.10;2.60;;;;;;;;;;108049;1262;23563;-29
2022/11/03 12:44:36;;;;;;;5.20;2.50;;;;;;;;;;108069;1268;24198;-29
2022/11/03 12:47:08;;;;;;;6.40;2.90;;;;;;;;;;108118;1268;22542;-29
2022/11/03 12:49:40;;;;;;;5.00;2.60;;;;;;;;;;108118;1268;23146;-29
2022/11/03 12:52:12;;;;;;;4.80;2.50;;;;;;;;;;107954;1271;25475;-29
2022/11/03 12:54:47;;;;;;;5.60;2.40;;;;;;;;;;108095;1261;23616;-29
2022/11/03 12:57:19;;;;;;;5.00;2.60;;;;;;;;;;108064;1268;23682;-29
2022/11/03 12:59:51;;;;;;;4.70;2.50;;;;;;;;;;108103;1268;22613;-29
2022/11/03 13:02:23;;;;;;;5.90;2.70;;;;;;;;;;108088;1268;23845;-29
2022/11/03 13:04:55;;;;;;;5.20;2.40;;;;;;;;;;108090;1268;24316;-30
2022/11/03 13:07:28;;;;;;;6.50;2.90;;;;;;;;;;108090;1268;22659;-29
2022/11/03 13:10:01;;;;;;;5.10;2.50;;;;;;;;;;108128;1268;22665;-29
2022/11/03 13:12:35;;;;;;;4.90;2.40;;;;;;;;;;107951;1269;24030;-30
2022/11/03 13:15:12;;;;;;;6.00;2.80;;;;;;;;;;108046;1268;23603;-30
2022/11/03 13:17:47;;;;;;;5.40;2.70;;;;;;;;;;108046;1261;24315;-30
2022/11/03 13:20:22;;;;;;;5.40;2.50;;;;;;;;;;108084;1268;25898;-30
2022/11/03 13:22:56;;;;;;;5.70;2.60;;;;;;;;;;108047;1265;26979;-29
2022/11/03 13:25:28;;;;;;;4.20;2.20;;;;;;;;;;108111;1265;24063;-30
2022/11/03 13:28:03;;;;;;;4.60;2.60;;;;;;;;;;108076;1266;22927;-29
2022/11/03 13:30:35;;;;;;;5.00;2.60;;;;;;;;;;108106;1268;22656;-30
2022/11/03 13:33:08;;;;;;;4.70;2.40;;;;;;;;;;107972;1268;28400;-29
2022/11/03 13:35:40;;;;;;;4.30;2.40;;;;;;;;;;107989;1268;24027;-29
2022/11/03 13:38:12;;;;;;;5.10;2.50;;;;;;;;;;107975;1269;23898;-31
2022/11/03 13:40:45;;;;;;;5.70;2.40;;;;;;;;;;108005;1271;22558;-31
2022/11/03 13:43:17;;;;;;;5.00;2.30;;;;;;;;;;108024;1268;22902;-30
2022/11/03 13:45:49;;;;;;;4.40;2.10;;;;;;;;;;107984;1268;24969;-30
2022/11/03 13:48:23;;;;;;;5.30;2.30;;;;;;;;;;108067;1262;23674;-29
2022/11/03 13:50:55;;;;;;;4.50;2.30;;;;;;;;;;108075;1268;22567;-29
2022/11/03 13:53:28;;;;;;;4.80;2.20;;;;;;;;;;108158;1266;23300;-29
2022/11/03 13:56:05;;;;;;;4.90;2.30;;;;;;;;;;108020;1268;24874;-28
2022/11/03 13:58:37;;;;;;;5.20;2.40;;;;;;;;;;107979;1271;24163;-29
2022/11/03 14:01:12;;;;;;;4.80;2.30;;;;;;;;;;107967;1267;24643;-30
2022/11/03 14:03:44;;;;;;;5.20;2.30;;;;;;;;;;108068;1268;27310;-29
2022/11/03 14:06:17;;;;;;;4.70;2.20;;;;;;;;;;108087;1262;23666;-29
2022/11/03 14:08:51;;;;;;;4.10;2.10;;;;;;;;;;108066;1268;24106;-29
2022/11/03 14:14:17;;;;;;;4.90;2.40;;;;;;;;;;108040;1268;26556;-30
2022/11/03 14:16:49;;;;;;;5.40;2.40;;;;;;;;;;108081;1268;23740;-29
2022/11/03 14:19:24;;;;;;;5.10;2.20;;;;;;;;;;108009;1271;22656;-29
2022/11/03 14:21:56;;;;;;;4.80;2.20;;;;;;;;;;108055;1268;25420;-30
2022/11/03 14:24:28;;;;;;;4.80;2.20;;;;;;;;;;107963;1271;24034;-30
2022/11/03 14:27:03;;;;;;;4.90;2.30;;;;;;;;;;108097;1267;23699;-31
2022/11/03 14:29:36;;;;;;;4.50;2.40;;;;;;;;;;108125;1267;23357;-31
2022/11/03 14:32:08;;;;;;;4.50;2.00;;;;;;;;;;108105;1268;23918;-31
2022/11/03 14:34:42;;;;;;;5.40;2.10;;;;;;;;;;108037;1268;26580;-31
2022/11/03 14:37:17;;;;;;;5.50;2.20;;;;;;;;;;108078;1268;25406;-31
2022/11/03 14:39:49;;;;;;;4.60;2.10;;;;;;;;;;108082;1268;23825;-31
2022/11/03 14:42:24;;;;;;;4.60;2.20;;;;;;;;;;108105;1268;23296;-31
2022/11/03 14:44:56;;;;;;;6.00;2.50;;;;;;;;;;108033;1268;27543;-31
2022/11/03 14:47:30;;;;;;;4.30;2.20;;;;;;;;;;108142;1264;22982;-31
2022/11/03 14:50:06;;;;;;;3.60;2.10;;;;;;;;;;108136;1270;24210;-31
2022/11/03 14:52:38;;;;;;;4.80;2.10;;;;;;;;;;108025;1268;22541;-31
2022/11/03 14:55:12;;;;;;;4.10;1.90;;;;;;;;;;108029;1268;27837;-31
2022/11/03 14:57:44;;;;;;;4.10;2.10;;;;;;;;;;108102;1260;23600;-31
2022/11/03 15:00:20;;;;;;;4.20;2.00;;;;;;;;;;107895;1268;22725;-32
2022/11/03 15:02:55;;;;;;;4.30;1.80;;;;;;;;;;108082;1268;24504;-31
2022/11/03 15:05:45;;;;;;;4.90;2.10;;;;;;;;;;108063;1268;27433;-31
2022/11/03 15:08:19;;;;;;;4.60;2.10;;;;;;;;;;108030;1274;24837;-32
2022/11/03 15:10:51;;;;;;;4.40;1.90;;;;;;;;;;108077;1268;23995;-32
2022/11/03 15:13:25;;;;;;;4.30;1.80;;;;;;;;;;108096;1274;22687;-31
2022/11/03 15:16:02;;;;;;;4.20;1.90;;;;;;;;;;108097;1268;26702;-31
2022/11/03 15:18:34;;;;;;;4.50;1.80;;;;;;;;;;108104;1268;24512;-32
2022/11/03 15:21:09;;;;;;;4.20;2.10;;;;;;;;;;108096;1268;22934;-32
2022/11/03 15:23:41;;;;;;;5.40;2.10;;;;;;;;;;108074;1268;22550;-31
2022/11/03 15:26:14;;;;;;;4.60;2.20;;;;;;;;;;108050;1268;25622;-31
2022/11/03 15:28:47;;;;;;;4.40;1.80;;;;;;;;;;108050;1267;23641;-32
2022/11/03 15:31:19;;;;;;;4.00;1.90;;;;;;;;;;108283;1262;22661;-32
2022/11/03 15:33:51;;;;;;;4.90;2.00;;;;;;;;;;108307;1268;22702;-32
2022/11/03 15:36:25;;;;;;;4.50;1.90;;;;;;;;;;108329;1271;24017;-32
2022/11/03 15:38:58;;;;;;;4.40;2.00;;;;;;;;;;108367;1271;22552;-32
2022/11/03 15:41:30;;;;;;;4.90;1.90;;;;;;;;;;108331;1268;22623;-33
2022/11/03 15:44:02;;;;;;;4.00;1.70;;;;;;;;;;108354;1269;22719;-33
2022/11/03 15:46:37;;;;;;;4.80;2.00;;;;;;;;;;108349;1261;22569;-32
2022/11/03 15:49:11;;;;;;;4.80;1.80;;;;;;;;;;108367;1269;22561;-31
2022/11/03 15:51:44;;;;;;;4.50;1.70;;;;;;;;;;108319;1271;22557;-31
2022/11/03 15:54:16;;;;;;;4.20;1.90;;;;;;;;;;108339;1267;22611;-31